• Join FlightAware (Why Join?)
  • Login
  • US Flag 
01:03PM EST


 

Airport Tracker/Info


-or-


 

Live Flight TrackerFlight Track Log ✈ AAR214 ✈ 06-Aug-2013 ✈ RKSI / ICN - KSFO

Flight Track Log - Related Links

Times and Time Zones

All times are in EDT time to prevent confusion due to time zone crossing. See the AAR214 flight status page for this flight to view local times or setup timezone preferences in your user account.

Time Position Orientation Groundspeed Altitude Reporting Facility
EDT Latitude Longitude Course Direction KTS MPH feet Rate Location/Type
04:06AM 37.2850 126.8590 87° East 312 359 8,200  Level FlightAware
04:07AM 37.2870 126.8990 86° East 312 359 8,200  Level FlightAware
04:07AM 37.2880 126.9250 87° East 312 359 8,200 1,320 Level FlightAware
04:07AM 37.2940 126.9890 83° East 314 361 9,300 1,320 Climbing FlightAware
04:08AM 37.3020 127.0710 83° East 316 364 10,000 960 Climbing FlightAware
04:09AM 37.3070 127.1300 84° East 334 384 10,700 1,620 Climbing FlightAware
04:09AM 37.3030 127.0860 263° West 376 433 11,600 1,800 Climbing FlightAware
04:10AM 37.3030 127.0860 263° West 397 457 12,600 1,920 Climbing FlightAware
04:11AM 37.4430 127.3150 52° Northeast 402 463 14,100 1,020 Climbing FlightAware
04:11AM 37.4950 127.3880 48° Northeast 402 463 14,100  Level FlightAware
04:12AM 37.5330 127.4410 48° Northeast 402 463 14,100 780 Level FlightAware
04:15AM 37.5577 127.8981 79° East  Level FlightAware Approximate
04:16AM 37.5854 128.0735 79° East  Level FlightAware Approximate
04:17AM 37.6149 128.2484 77° East  Level FlightAware Approximate
04:18AM 37.6446 128.4230 76° East  Level FlightAware Approximate
04:19AM 37.6667 128.5995 90° East  Level FlightAware Approximate
04:20AM 37.6907 128.7688 122° Southeast  Level FlightAware Approximate
04:21AM 37.6150 128.9202 122° Southeast  Level FlightAware Approximate
04:22AM 37.5394 129.0715 122° Southeast  Level FlightAware Approximate
04:23AM 37.4638 129.2226 122° Southeast  Level FlightAware Approximate
04:24AM 37.3882 129.3736 122° Southeast  Level FlightAware Approximate
04:25AM 37.3143 129.5257 121° Southeast  Level FlightAware Approximate
04:26AM 37.2402 129.6777 121° Southeast  Level FlightAware Approximate
04:27AM 37.1660 129.8293 122° Southeast  Level FlightAware Approximate
04:28AM 37.0916 129.9806 122° Southeast  Level FlightAware Approximate
04:29AM 37.0170 130.1317 122° Southeast  Level FlightAware Approximate
04:30AM 36.9422 130.2824 122° Southeast  Level FlightAware Approximate
04:31AM 36.8672 130.4328 122° Southeast  Level FlightAware Approximate
04:32AM 36.7920 130.5830 122° Southeast  Level FlightAware Approximate
04:33AM 36.7166 130.7327 122° Southeast  Level FlightAware Approximate
04:34AM 36.6408 130.8821 122° Southeast  Level FlightAware Approximate
04:35AM 36.5648 131.0311 122° Southeast  Level FlightAware Approximate
04:35AM 36.5470 131.0720 122° Southeast 516 594 33,000  Level FlightAware
04:35AM 36.5040 131.1600 121° Southeast 516 594 33,000  Level FlightAware
04:36AM 36.4600 131.2510 121° Southeast 519 597 33,000  Level FlightAware
04:36AM 36.4230 131.3260 121° Southeast 525 604 33,000  Level FlightAware
04:37AM 36.3710 131.4340 121° Southeast 525 604 33,000  Level FlightAware
04:38AM 36.3320 131.5150 121° Southeast 525 604 33,000  Level FlightAware
04:38AM 36.3680 131.5960 61° Northeast 524 603 33,000  Level FlightAware
04:38AM 36.3650 131.7060 92° East 525 604 33,000  Level FlightAware
04:39AM 36.3610 131.8260 92° East 526 605 33,000  Level FlightAware
04:40AM 36.3560 131.9950 92° East 527 606 33,000  Level FlightAware
04:41AM 36.3520 132.1040 93° East 533 613 33,000  Level FlightAware
04:41AM 36.3460 132.2470 93° East 536 617 33,000  Level FlightAware
04:42AM 36.3420 132.3730 92° East 538 619 33,000  Level FlightAware
04:43AM 36.3390 132.5330 91° East 538 619 33,000  Level FlightAware
04:44AM 36.3370 132.6380 91° East 538 619 33,000  Level FlightAware
04:44AM 36.3270 132.7590 96° East 533 613 33,000  Level FlightAware
04:45AM 36.3220 132.8810 93° East 531 611 33,000  Level FlightAware
04:45AM 36.3170 132.9850 93° East 531 611 33,000  Level FlightAware
04:46AM 36.3130 133.0930 93° East 530 610 33,000  Level FlightAware
04:47AM 36.3080 133.1970 93° East 530 610 33,000  Level FlightAware
04:47AM 36.3030 133.3030 93° East 528 608 33,000  Level FlightAware
04:48AM 36.2980 133.4100 93° East 528 608 33,000  Level FlightAware
04:48AM 36.2930 133.5160 93° East 527 606 33,000  Level FlightAware
04:49AM 36.2890 133.6130 93° East 526 605 33,000  Level FlightAware
04:50AM 36.2830 133.7270 94° East 525 604 33,000  Level FlightAware
04:50AM 36.2790 133.8220 93° East 525 604 33,000  Level FlightAware
04:51AM 36.2730 133.9380 94° East 526 605 33,000  Level FlightAware
04:51AM 36.2680 134.0420 93° East 528 608 33,000  Level FlightAware
04:52AM 36.2620 134.1470 94° East 530 610 33,000  Level FlightAware
04:53AM 36.2560 134.2690 93° East 532 612 33,000  Level FlightAware
04:53AM 36.2490 134.3920 94° East 533 613 33,000  Level FlightAware
04:54AM 36.2460 134.4980 92° East 532 612 33,000  Level FlightAware
04:54AM 36.2510 134.6000 86° East 530 610 33,000  Level FlightAware
04:55AM 36.2590 134.6930 84° East 529 609 33,000  Level FlightAware
04:56AM 36.2700 134.8110 83° East 530 610 33,000  Level FlightAware
04:56AM 36.2790 134.9180 84° East 530 610 33,000  Level FlightAware
04:57AM 36.2880 135.0240 84° East 530 610 33,000  Level FlightAware
04:57AM 36.2970 135.1310 84° East 530 610 33,000  Level FlightAware
04:58AM 36.3060 135.2340 84° East 531 611 33,000  Level FlightAware
04:58AM 36.3130 135.3260 85° East 521 600 33,000  Level FlightAware
04:59AM 36.3210 135.4240 84° East 512 589 33,000  Level FlightAware
05:00AM 36.3360 135.6140 84° East 515 593 33,000  Level FlightAware
05:01AM 36.3450 135.7170 84° East 514 592 33,000  Level FlightAware
05:02AM 36.3570 135.8810 85° East 514 592 33,000  Level FlightAware
05:02AM 36.3640 135.9720 85° East 514 592 33,000  Level FlightAware
05:03AM 36.3720 136.0740 84° East 514 592 33,000  Level FlightAware
05:03AM 36.3730 136.0920 86° East 514 592 33,000  Level FlightAware
05:04AM 36.3830 136.2230 85° East 516 594 33,000  Level FlightAware
05:04AM 36.3950 136.3880 85° East 520 598 33,000  Level FlightAware
05:05AM 36.4050 136.5000 84° East 522 601 33,000  Level FlightAware
05:06AM 36.4180 136.6110 82° East 525 604 33,000  Level FlightAware
05:06AM 36.4270 136.6930 82° East 528 608 33,000  Level FlightAware
05:07AM 36.4380 136.8050 83° East 530 610 33,000  Level FlightAware
05:07AM 36.4500 136.9240 83° East 531 611 33,000  Level FlightAware
05:08AM 36.4610 137.0310 83° East 533 613 33,000  Level FlightAware
05:09AM 36.4730 137.1510 83° East 536 617 33,000  Level FlightAware
05:09AM 36.4850 137.2730 83° East 538 619 33,000  Level FlightAware
05:10AM 36.4950 137.3810 83° East 540 621 33,000  Level FlightAware
05:11AM 36.5050 137.4820 83° East 543 625 33,000  Level FlightAware
05:11AM 36.5180 137.5980 82° East 547 629 33,000  Level FlightAware
05:12AM 36.5320 137.6750 77° East 548 631 33,000  Level FlightAware
05:12AM 36.5580 137.8080 76° East 550 633 33,000  Level FlightAware
05:13AM 36.5800 137.9210 76° East 551 634 33,000  Level FlightAware
05:14AM 36.6030 138.0410 77° East 551 634 33,000  Level FlightAware
05:14AM 36.6170 138.1360 80° East 549 632 33,000  Level FlightAware
05:15AM 36.6180 138.2470 89° East 547 629 33,000  Level FlightAware
05:15AM 36.6180 138.3590 90° East 547 629 33,000  Level FlightAware
05:16AM 36.6190 138.4980 89° East 546 628 33,000  Level FlightAware
05:17AM 36.6190 138.6170 90° East 545 627 33,000  Level FlightAware
05:17AM 36.6150 138.7430 92° East 544 626 33,000  Level FlightAware
05:18AM 36.6120 138.8400 92° East 544 626 33,000  Level FlightAware
05:18AM 36.6080 138.9560 92° East 545 627 33,000  Level FlightAware
05:19AM 36.6040 139.0580 93° East 544 626 33,000  Level FlightAware
05:19AM 36.5980 139.1500 95° East 542 624 33,000  Level FlightAware
05:20AM 36.5820 139.2930 98° East 538 619 33,000  Level FlightAware
05:21AM 36.5580 139.4390 102° East 536 617 33,000  Level FlightAware
05:22AM 36.5420 139.5390 101° East 534 615 33,000  Level FlightAware
05:22AM 36.5240 139.6270 104° East 530 610 33,000  Level FlightAware
05:22AM 36.5130 139.6750 106° East 529 609 33,000  Level FlightAware
05:23AM 36.4830 139.8680 101° East 534 615 33,000  Level FlightAware
05:24AM 36.4860 139.9670 88° East 536 617 33,000  Level FlightAware
05:25AM 36.4950 140.0690 84° East 537 618 33,000  Level FlightAware
05:25AM 36.5020 140.1830 86° East 538 619 33,000  Level FlightAware
05:26AM 36.5130 140.2920 83° East 539 620 33,000  Level FlightAware
05:26AM 36.5260 140.3840 80° East 540 621 33,000  Level FlightAware
05:27AM 36.5450 140.5180 80° East 541 623 33,000  Level FlightAware
05:27AM 36.5560 140.5880 79° East 539 620 33,000  Level FlightAware
05:28AM 36.5770 140.7330 80° East 538 619 33,000  Level FlightAware
05:29AM 36.5920 140.8410 80° East 538 619 33,000  Level FlightAware
05:29AM 36.6080 140.9530 80° East 537 618 33,000  Level FlightAware
05:30AM 36.6220 141.0500 80° East 536 617 33,000 120 Level FlightAware
05:30AM 36.6380 141.1640 80° East 537 618 33,200 480 Climbing FlightAware
05:31AM 36.6520 141.2580 79° East 535 616 33,600 720 Climbing FlightAware
05:32AM 36.6660 141.3610 80° East 535 616 34,000 300 Climbing FlightAware
05:32AM 36.6810 141.4680 80° East 535 616 34,000  Level FlightAware
05:33AM 36.6950 141.5720 80° East 536 617 34,000  Level FlightAware
05:33AM 36.7100 141.6810 80° East 536 617 34,000  Level FlightAware
05:34AM 36.7260 141.7980 80° East 539 620 34,000  Level FlightAware
05:35AM 36.7410 141.9050 80° East 539 620 34,000  Level FlightAware
05:35AM 36.7550 142.0080 80° East 538 619 34,000  Level FlightAware
05:36AM 36.7690 142.1150 81° East 536 617 34,000  Level FlightAware
05:36AM 36.7830 142.2210 81° East 534 615 34,000  Level FlightAware
05:37AM 36.7970 142.3270 81° East 535 616 34,000  Level FlightAware
05:37AM 36.8110 142.4340 81° East 535 616 34,000  Level FlightAware
05:38AM 36.8250 142.5410 81° East 535 616 34,000  Level FlightAware
05:39AM 36.8380 142.6480 81° East 534 615 34,000  Level FlightAware
05:39AM 36.8520 142.7530 81° East 534 615 34,000  Level FlightAware
05:39AM 36.8570 142.7940 81° East 534 615 34,000  Level FlightAware
05:42AM 36.9026 143.1616 81° East  Level FlightAware Approximate
05:42AM 36.9160 143.2630 81° East 534 615 34,000  Level FlightAware
05:43AM 36.9290 143.3620 81° East 534 615 34,000  Level FlightAware
05:44AM 36.9400 143.4550 82° East 534 615 34,000  Level FlightAware
05:45AM 36.9600 143.6110 81° East 534 615 34,000  Level FlightAware
05:45AM 36.9870 143.8610 82° East 527 606 34,000  Level FlightAware
05:46AM 37.0000 143.9690 81° East 526 605 34,000  Level FlightAware
05:46AM 37.0120 144.0740 82° East 527 606 34,000  Level FlightAware
05:47AM 37.0250 144.1770 81° East 526 605 34,000  Level FlightAware
05:48AM 37.0380 144.2820 81° East 525 604 34,000  Level FlightAware
05:48AM 37.0490 144.3850 82° East 523 602 34,000  Level FlightAware
05:49AM 37.0420 144.4970 94° East 525 604 34,000  Level FlightAware
05:49AM 37.0280 144.5970 100° East 522 601 34,000  Level FlightAware
05:50AM 37.0130 144.7030 100° East 521 600 34,000  Level FlightAware
05:51AM 37.0110 144.8130 91° East 518 596 34,000  Level FlightAware
05:51AM 37.0220 144.9260 83° East 519 597 34,000  Level FlightAware
05:52AM 37.0490 145.0710 77° East 518 596 34,000  Level FlightAware
05:53AM 37.0720 145.1590 72° East 522 601 34,000  Level FlightAware
05:53AM 37.1090 145.3010 72° East 523 602 34,000  Level FlightAware
05:54AM 37.1330 145.3920 72° East 523 602 34,000  Level FlightAware
05:55AM 37.1600 145.5060 73° East 522 601 34,000  Level FlightAware
05:55AM 37.1880 145.6240 73° East 522 601 34,000  Level FlightAware
05:56AM 37.2270 145.7920 74° East 524 603 34,000  Level FlightAware
05:57AM 37.2520 145.9040 74° East 525 604 34,000  Level FlightAware
05:57AM 37.2730 145.9960 74° East 525 604 34,000  Level FlightAware
05:58AM 37.2940 146.0860 74° East 525 604 34,000  Level FlightAware
05:59AM 37.3260 146.2310 74° East 523 602 34,000  Level FlightAware
05:59AM 37.3470 146.3230 74° East 523 602 34,000  Level FlightAware
06:00AM 37.3740 146.4420 74° East 523 602 34,000  Level FlightAware
06:01AM 37.3880 146.5040 74° East 523 602 34,000  Level FlightAware
06:01AM 37.4160 146.6260 74° East 523 602 34,000  Level FlightAware
06:02AM 37.4370 146.7160 74° East 523 602 34,000  Level FlightAware
06:03AM 37.4580 146.8080 74° East 523 602 34,000  Level FlightAware
06:03AM 37.4830 146.9200 74° East 523 602 34,000  Level FlightAware
06:04AM 37.5020 147.0050 74° East 523 602 34,000  Level FlightAware
06:05AM 37.5220 147.0900 73° East 523 602 34,000  Level FlightAware
06:05AM 37.5430 147.1840 74° East 523 602 34,000  Level FlightAware
06:06AM 37.5640 147.2740 74° East 523 602 34,000  Level FlightAware
06:06AM 37.5840 147.3640 74° East 523 602 34,000  Level FlightAware
06:07AM 37.6040 147.4540 74° East 523 602 34,000  Level FlightAware
06:08AM 37.6250 147.5440 74° East 523 602 34,000  Level FlightAware
06:10AM 37.6800 147.8805 75° East  Level FlightAware Approximate
06:11AM 37.7159 148.0538 75° East  Level FlightAware Approximate
06:12AM 37.7516 148.2272 75° East  Level FlightAware Approximate
06:13AM 37.7871 148.4009 75° East  Level FlightAware Approximate
06:14AM 37.8223 148.5747 76° East  Level FlightAware Approximate
06:15AM 37.8572 148.7486 76° East  Level FlightAware Approximate
06:16AM 37.8919 148.9227 76° East  Level FlightAware Approximate
06:17AM 37.9263 149.0970 76° East  Level FlightAware Approximate
06:18AM 37.9604 149.2715 76° East  Level FlightAware Approximate
06:19AM 37.9944 149.4461 76° East  Level FlightAware Approximate
06:20AM 38.0280 149.6209 76° East  Level FlightAware Approximate
06:21AM 38.0614 149.7958 76° East  Level FlightAware Approximate
06:22AM 38.0945 149.9709 76° East  Level FlightAware Approximate
06:23AM 38.1470 150.1379 67° East  Level FlightAware Approximate
06:24AM 38.2031 150.3034 67° East  Level FlightAware Approximate
06:25AM 38.2590 150.4693 67° East  Level FlightAware Approximate
06:26AM 38.3146 150.6354 67° East  Level FlightAware Approximate
06:27AM 38.3701 150.8017 67° East  Level FlightAware Approximate
06:28AM 38.4253 150.9683 67° East  Level FlightAware Approximate
06:29AM 38.4802 151.1352 67° East  Level FlightAware Approximate
06:30AM 38.5349 151.3023 67° East  Level FlightAware Approximate
06:31AM 38.5894 151.4696 67° East  Level FlightAware Approximate
06:32AM 38.6436 151.6373 67° East  Level FlightAware Approximate
06:33AM 38.6976 151.8051 68° East  Level FlightAware Approximate
06:34AM 38.7517 151.9731 67° East  Level FlightAware Approximate
06:35AM 38.8061 152.1410 67° East  Level FlightAware Approximate
06:36AM 38.8603 152.3092 67° East  Level FlightAware Approximate
06:37AM 38.9142 152.4776 68° East  Level FlightAware Approximate
06:38AM 38.9679 152.6463 68° East  Level FlightAware Approximate
06:39AM 39.0213 152.8152 68° East  Level FlightAware Approximate
06:40AM 39.0745 152.9844 68° East  Level FlightAware Approximate
06:41AM 39.1275 153.1538 68° East  Level FlightAware Approximate
06:42AM 39.1802 153.3235 68° East  Level FlightAware Approximate
06:43AM 39.2327 153.4934 68° East  Level FlightAware Approximate
06:44AM 39.2849 153.6636 68° East  Level FlightAware Approximate
06:45AM 39.3368 153.8341 68° East  Level FlightAware Approximate
06:46AM 39.3885 154.0048 69° East  Level FlightAware Approximate
06:47AM 39.4400 154.1758 69° East  Level FlightAware Approximate
06:48AM 39.4912 154.3470 69° East  Level FlightAware Approximate
06:49AM 39.5422 154.5184 69° East  Level FlightAware Approximate
06:50AM 39.5929 154.6901 69° East  Level FlightAware Approximate
06:51AM 39.6434 154.8621 69° East  Level FlightAware Approximate
06:52AM 39.6936 155.0343 69° East  Level FlightAware Approximate
06:53AM 39.7435 155.2068 69° East  Level FlightAware Approximate
06:54AM 39.7932 155.3795 69° East  Level FlightAware Approximate
06:55AM 39.8427 155.5525 70° East  Level FlightAware Approximate
06:56AM 39.8918 155.7257 70° East  Level FlightAware Approximate
06:57AM 39.9408 155.8992 70° East  Level FlightAware Approximate
06:58AM 39.9894 156.0729 70° East  Level FlightAware Approximate
06:59AM 40.0378 156.2468 70° East  Level FlightAware Approximate
07:00AM 40.0860 156.4210 70° East  Level FlightAware Approximate
07:01AM 40.1339 156.5955 70° East  Level FlightAware Approximate
07:02AM 40.1815 156.7702 70° East  Level FlightAware Approximate
07:03AM 40.2288 156.9451 71° East  Level FlightAware Approximate
07:04AM 40.2757 157.1204 71° East  Level FlightAware Approximate
07:05AM 40.3224 157.2959 71° East  Level FlightAware Approximate
07:06AM 40.3688 157.4716 71° East  Level FlightAware Approximate
07:07AM 40.4149 157.6476 71° East  Level FlightAware Approximate
07:08AM 40.4607 157.8238 71° East  Level FlightAware Approximate
07:09AM 40.5063 158.0003 71° East  Level FlightAware Approximate
07:10AM 40.5516 158.1770 71° East  Level FlightAware Approximate
07:11AM 40.5967 158.3540 71° East  Level FlightAware Approximate
07:12AM 40.6415 158.5312 72° East  Level FlightAware Approximate
07:13AM 40.6860 158.7086 72° East  Level FlightAware Approximate
07:14AM 40.7302 158.8862 72° East  Level FlightAware Approximate
07:15AM 40.7742 159.0641 72° East  Level FlightAware Approximate
07:16AM 40.8178 159.2423 72° East  Level FlightAware Approximate
07:17AM 40.8613 159.4206 72° East  Level FlightAware Approximate
07:18AM 40.9044 159.5992 72° East  Level FlightAware Approximate
07:19AM 40.9473 159.7780 72° East  Level FlightAware Approximate
07:20AM 40.9898 159.9571 72° East  Level FlightAware Approximate
07:21AM 41.0462 160.1292 65° Northeast  Level FlightAware Approximate
07:22AM 41.1066 160.2992 65° Northeast  Level FlightAware Approximate
07:23AM 41.1668 160.4696 65° Northeast  Level FlightAware Approximate
07:24AM 41.2268 160.6403 65° Northeast  Level FlightAware Approximate
07:25AM 41.2865 160.8114 65° Northeast  Level FlightAware Approximate
07:26AM 41.3459 160.9827 65° Northeast  Level FlightAware Approximate
07:27AM 41.4051 161.1543 65° Northeast  Level FlightAware Approximate
07:28AM 41.4641 161.3263 65° Northeast  Level FlightAware Approximate
07:29AM 41.5228 161.4986 65° Northeast  Level FlightAware Approximate
07:30AM 41.5812 161.6711 66° East  Level FlightAware Approximate
07:31AM 41.6394 161.8440 66° East  Level FlightAware Approximate
07:32AM 41.6973 162.0172 66° East  Level FlightAware Approximate
07:33AM 41.7549 162.1908 66° East  Level FlightAware Approximate
07:34AM 41.8123 162.3646 66° East  Level FlightAware Approximate
07:35AM 41.8694 162.5387 66° East  Level FlightAware Approximate
07:36AM 41.9263 162.7132 66° East  Level FlightAware Approximate
07:37AM 41.9829 162.8879 66° East  Level FlightAware Approximate
07:38AM 42.0392 163.0630 67° East  Level FlightAware Approximate
07:39AM 42.0953 163.2384 67° East  Level FlightAware Approximate
07:40AM 42.1511 163.4141 67° East  Level FlightAware Approximate
07:41AM 42.2066 163.5901 67° East  Level FlightAware Approximate
07:42AM 42.2619 163.7664 67° East  Level FlightAware Approximate
07:43AM 42.3168 163.9430 67° East  Level FlightAware Approximate
07:44AM 42.3716 164.1199 67° East  Level FlightAware Approximate
07:45AM 42.4260 164.2971 67° East  Level FlightAware Approximate
07:46AM 42.4802 164.4747 67° East  Level FlightAware Approximate
07:47AM 42.5341 164.6525 68° East  Level FlightAware Approximate
07:48AM 42.5877 164.8307 68° East  Level FlightAware Approximate
07:49AM 42.6411 165.0091 68° East  Level FlightAware Approximate
07:50AM 42.6945 165.1876 68° East  Level FlightAware Approximate
07:50AM 42.6667 165.0500 68° East 534 615 36,000  Level Oakland Oceanic (ODAPS)
07:50AM 42.6500 165.0000 68° East 528 608 36,000  Level Oakland Oceanic (ODAPS)
07:51AM 42.7477 165.3665 68° East  Level FlightAware Approximate
07:52AM 42.8006 165.5456 68° East  Level FlightAware Approximate
07:53AM 42.8533 165.7251 68° East  Level FlightAware Approximate
07:54AM 42.9056 165.9049 68° East  Level FlightAware Approximate
07:55AM 42.9577 166.0849 68° East  Level FlightAware Approximate
07:56AM 42.9807 166.1340 69° East 528 608 36,000  Level FlightAware Transoceanic
07:57AM 43.0347 166.3242 69° East 528 608 36,000  Level FlightAware Transoceanic
07:58AM 43.0885 166.5147 69° East 528 608 36,000  Level FlightAware Transoceanic
07:59AM 43.1418 166.7055 69° East 528 608 36,000  Level FlightAware Transoceanic
08:00AM 43.1949 166.8967 69° East 528 608 36,000  Level FlightAware Transoceanic
08:01AM 43.2477 167.0882 69° East 528 608 36,000  Level FlightAware Transoceanic
08:02AM 43.3001 167.2800 69° East 528 608 36,000  Level FlightAware Transoceanic
08:02AM 43.3167 167.3667 69° East 528 608 36,000  Level Oakland Oceanic (ODAPS)
08:03AM 43.3522 167.4722 70° East 528 608 36,000  Level FlightAware Transoceanic
08:04AM 43.4040 167.6647 70° East 528 608 36,000  Level FlightAware Transoceanic
08:05AM 43.4555 167.8575 70° East 528 608 36,000  Level FlightAware Transoceanic
08:06AM 43.5066 168.0507 70° East 528 608 36,000  Level FlightAware Transoceanic
08:07AM 43.5575 168.2442 70° East 528 608 36,000  Level FlightAware Transoceanic
08:08AM 43.6169 168.4879 70° East 528 608 36,000  Level FlightAware Transoceanic
08:09AM 43.6659 168.6758 70° East 528 608 36,000  Level FlightAware Transoceanic
08:10AM 43.7146 168.8641 70° East 528 608 36,000  Level FlightAware Transoceanic
08:11AM 43.7629 169.0527 71° East 528 608 36,000  Level FlightAware Transoceanic
08:12AM 43.8110 169.2415 71° East 528 608 36,000  Level FlightAware Transoceanic
08:13AM 43.8587 169.4307 71° East 528 608 36,000  Level FlightAware Transoceanic
08:14AM 43.9061 169.6202 71° East 528 608 36,000  Level FlightAware Transoceanic
08:15AM 43.9532 169.8099 71° East 528 608 36,000  Level FlightAware Transoceanic
08:16AM 44.0000 170.0000 71° East 528 608 36,000  Level FlightAware Transoceanic
08:16AM 44.0000 170.0000 71° East 532 612 36,000  Level Oakland Oceanic (ODAPS)
08:16AM 44.0000 170.0000 71° East 534 615 36,000  Level Oakland Oceanic (ODAPS)
08:17AM 44.0484 170.1928 71° East 528 608 36,000  Level FlightAware Transoceanic
08:18AM 44.0964 170.3860 71° East 528 608 36,000  Level FlightAware Transoceanic
08:19AM 44.1441 170.5795 71° East 528 608 36,000  Level FlightAware Transoceanic
08:20AM 44.1915 170.7733 71° East 528 608 36,000  Level FlightAware Transoceanic
08:21AM 44.2386 170.9673 71° East 528 608 36,000  Level FlightAware Transoceanic
08:22AM 44.2853 171.1617 72° East 532 612 36,000  Level FlightAware Transoceanic
08:23AM 44.3317 171.3565 72° East 534 615 36,000  Level FlightAware Transoceanic
08:24AM 44.3778 171.5515 72° East 534 615 36,000  Level FlightAware Transoceanic
08:25AM 44.4235 171.7468 72° East 534 615 36,000  Level FlightAware Transoceanic
08:25AM 44.4167 171.7167 72° East 533 613 36,000  Level Oakland Oceanic (ODAPS)
08:26AM 44.4689 171.9424 72° East 534 615 36,000  Level FlightAware Transoceanic
08:27AM 44.5140 172.1384 72° East 534 615 36,000  Level FlightAware Transoceanic
08:28AM 44.5587 172.3346 72° East 534 615 36,000  Level FlightAware Transoceanic
08:29AM 44.6031 172.5311 72° East 534 615 36,000  Level FlightAware Transoceanic
08:30AM 44.6471 172.7280 73° East 534 615 36,000  Level FlightAware Transoceanic
08:30AM 44.6500 172.7167 73° East 532 612 36,000  Level Oakland Oceanic (ODAPS)
08:31AM 44.6853 172.8991 73° East 533 613 36,000  Level FlightAware Transoceanic
08:32AM 44.7289 173.0973 73° East 533 613 36,000  Level FlightAware Transoceanic
08:33AM 44.7721 173.2957 73° East 533 613 36,000  Level FlightAware Transoceanic
08:34AM 44.8150 173.4944 73° East 533 613 36,000  Level FlightAware Transoceanic
08:35AM 44.8576 173.6935 73° East 533 613 36,000  Level FlightAware Transoceanic
08:36AM 44.9068 173.9058 73° East 532 612 36,000  Level FlightAware Transoceanic
08:37AM 44.9484 174.1050 74° East 532 612 36,000  Level FlightAware Transoceanic
08:38AM 44.9897 174.3045 74° East 532 612 36,000  Level FlightAware Transoceanic
08:39AM 45.0306 174.5043 74° East 532 612 36,000  Level FlightAware Transoceanic
08:40AM 45.0711 174.7043 74° East 532 612 36,000  Level FlightAware Transoceanic
08:41AM 45.1113 174.9047 74° East 532 612 36,000  Level FlightAware Transoceanic
08:42AM 45.1512 175.1053 74° East 532 612 36,000  Level FlightAware Transoceanic
08:43AM 45.1907 175.3062 74° East 532 612 36,000  Level FlightAware Transoceanic
08:44AM 45.2298 175.5074 75° East 532 612 36,000  Level FlightAware Transoceanic
08:44AM 45.2167 175.4667 75° East 531 611 36,000  Level Oakland Oceanic (ODAPS)
08:45AM 45.2686 175.7089 75° East 532 612 36,000  Level FlightAware Transoceanic
08:46AM 45.3071 175.9106 75° East 532 612 36,000  Level FlightAware Transoceanic
08:47AM 45.3452 176.1126 75° East 532 612 36,000  Level FlightAware Transoceanic
08:48AM 45.3829 176.3149 75° East 532 612 36,000  Level FlightAware Transoceanic
08:49AM 45.4203 176.5174 75° East 532 612 36,000  Level FlightAware Transoceanic
08:50AM 45.4480 176.6903 75° East 531 611 36,000  Level FlightAware Transoceanic
08:51AM 45.4853 176.8952 76° East 531 611 36,000  Level FlightAware Transoceanic
08:52AM 45.5222 177.1004 76° East 531 611 36,000  Level FlightAware Transoceanic
08:53AM 45.5588 177.3058 76° East 531 611 36,000  Level FlightAware Transoceanic
08:54AM 45.5949 177.5115 76° East 531 611 36,000  Level FlightAware Transoceanic
08:55AM 45.6307 177.7175 76° East 531 611 36,000  Level FlightAware Transoceanic
08:56AM 45.6662 177.9237 76° East 531 611 36,000  Level FlightAware Transoceanic
08:57AM 45.7013 178.1302 76° East 531 611 36,000  Level FlightAware Transoceanic
08:57AM 45.7333 178.2833 77° East 539 620 36,000  Level Oakland Oceanic (ODAPS)
08:58AM 45.7360 178.3370 77° East 531 611 36,000  Level FlightAware Transoceanic
08:59AM 45.7703 178.5440 77° East 531 611 36,000  Level FlightAware Transoceanic
09:00AM 45.8042 178.7512 77° East 531 611 36,000  Level FlightAware Transoceanic
09:01AM 45.8378 178.9588 77° East 531 611 36,000  Level FlightAware Transoceanic
09:02AM 45.8710 179.1665 77° East 531 611 36,000  Level FlightAware Transoceanic
09:03AM 45.9038 179.3745 77° East 531 611 36,000  Level FlightAware Transoceanic
09:04AM 45.9357 179.5693 78° East 539 620 36,000  Level FlightAware Transoceanic
09:05AM 45.9681 179.7845 78° East 539 620 36,000  Level FlightAware Transoceanic
09:06AM 46.0000 -180.0000 86° East 539 620 36,000  Level FlightAware Transoceanic
09:06AM 46.0000 180.0000 86° East 537 618 36,000  Level Oakland Oceanic (ODAPS)
09:07AM 46.0091 -179.7878 87° East 539 620 36,000  Level FlightAware Transoceanic
09:08AM 46.0178 -179.5755 87° East 539 620 36,000  Level FlightAware Transoceanic
09:09AM 46.0261 -179.3631 87° East 539 620 36,000  Level FlightAware Transoceanic
09:10AM 46.0340 -179.1506 87° East 539 620 36,000  Level FlightAware Transoceanic
09:11AM 46.0415 -178.9381 87° East 539 620 36,000  Level FlightAware Transoceanic
09:11AM 46.0500 -178.7833 87° East 534 615 36,000  Level Oakland Oceanic (ODAPS)
09:12AM 46.0486 -178.7256 87° East 537 618 36,000  Level FlightAware Transoceanic
09:13AM 46.0553 -178.5130 87° East 537 618 36,000  Level FlightAware Transoceanic
09:14AM 46.0616 -178.3003 88° East 537 618 36,000  Level FlightAware Transoceanic
09:15AM 46.0676 -178.0876 88° East 537 618 36,000  Level FlightAware Transoceanic
09:16AM 46.0731 -177.8749 88° East 537 618 36,000  Level FlightAware Transoceanic
09:17AM 46.0782 -177.6621 88° East 537 618 36,000  Level FlightAware Transoceanic
09:18AM 46.0847 -177.4986 88° East 534 615 36,000  Level FlightAware Transoceanic
09:19AM 46.0891 -177.2843 88° East 534 615 36,000  Level FlightAware Transoceanic
09:20AM 46.0931 -177.0700 89° East 534 615 36,000  Level FlightAware Transoceanic
09:21AM 46.0967 -176.8556 89° East 534 615 36,000  Level FlightAware Transoceanic
09:22AM 46.0999 -176.6413 89° East 534 615 36,000  Level FlightAware Transoceanic
09:23AM 46.1027 -176.4269 89° East 534 615 36,000  Level FlightAware Transoceanic
09:24AM 46.1051 -176.2125 89° East 534 615 36,000  Level FlightAware Transoceanic
09:25AM 46.1071 -175.9981 89° East 534 615 36,000  Level FlightAware Transoceanic
09:25AM 46.1000 -175.8333 89° East 532 612 36,000  Level Oakland Oceanic (ODAPS)
09:26AM 46.1087 -175.7836 89° East 534 615 36,000  Level FlightAware Transoceanic
09:27AM 46.1098 -175.5692 90° East 534 615 36,000  Level FlightAware Transoceanic
09:28AM 46.1106 -175.3547 90° East 534 615 36,000  Level FlightAware Transoceanic
09:29AM 46.1110 -175.1403 90° East 534 615 36,000  Level FlightAware Transoceanic
09:30AM 46.1110 -174.9258 90° East 534 615 36,000  Level FlightAware Transoceanic
09:31AM 46.1039 -174.7520 90° East 532 612 36,000  Level FlightAware Transoceanic
09:32AM 46.1035 -174.5357 90° East 532 612 36,000  Level FlightAware Transoceanic
09:33AM 46.1026 -174.3194 90° East 532 612 36,000  Level FlightAware Transoceanic
09:34AM 46.1013 -174.1032 91° East 532 612 36,000  Level FlightAware Transoceanic
09:35AM 46.0997 -173.8869 91° East 532 612 36,000  Level FlightAware Transoceanic
09:36AM 46.0976 -173.6707 91° East 532 612 36,000  Level FlightAware Transoceanic
09:37AM 46.0951 -173.4545 91° East 532 612 36,000  Level FlightAware Transoceanic
09:38AM 46.0922 -173.2383 91° East 532 612 36,000  Level FlightAware Transoceanic
09:39AM 46.0889 -173.0221 91° East 532 612 36,000  Level FlightAware Transoceanic
09:39AM 46.0833 -172.8833 91° East 537 618 36,000  Level Oakland Oceanic (ODAPS)
09:40AM 46.0852 -172.8060 91° East 532 612 36,000  Level FlightAware Transoceanic
09:41AM 46.0811 -172.5898 92° East 532 612 36,000  Level FlightAware Transoceanic
09:42AM 46.0766 -172.3738 92° East 532 612 36,000  Level FlightAware Transoceanic
09:43AM 46.0716 -172.1577 92° East 532 612 36,000  Level FlightAware Transoceanic
09:44AM 46.0663 -171.9417 92° East 532 612 36,000  Level FlightAware Transoceanic
09:45AM 46.0606 -171.7258 92° East 532 612 36,000  Level FlightAware Transoceanic
09:46AM 46.0507 -171.4406 92° East 537 618 36,000  Level FlightAware Transoceanic
09:47AM 46.0446 -171.2346 93° East 537 618 36,000  Level FlightAware Transoceanic
09:48AM 46.0381 -171.0287 93° East 537 618 36,000  Level FlightAware Transoceanic
09:49AM 46.0312 -170.8229 93° East 537 618 36,000  Level FlightAware Transoceanic
09:50AM 46.0240 -170.6171 93° East 537 618 36,000  Level FlightAware Transoceanic
09:51AM 46.0163 -170.4113 93° East 537 618 36,000  Level FlightAware Transoceanic
09:52AM 46.0084 -170.2056 93° East 537 618 36,000  Level FlightAware Transoceanic
09:53AM 46.0000 -170.0000 95° East 537 618 36,000  Level FlightAware Transoceanic
09:53AM 46.0000 -170.0500 90° East 455 524 36,000  Level Oakland Oceanic (ODAPS)
09:53AM 46.0000 -170.0000 95° East 525 604 36,000  Level Oakland Oceanic (ODAPS)
09:54AM 45.9882 -169.7885 95° East 537 618 36,000  Level FlightAware Transoceanic
09:55AM 45.9759 -169.5771 95° East 537 618 36,000  Level FlightAware Transoceanic
09:56AM 45.9633 -169.3658 95° East 537 618 36,000  Level FlightAware Transoceanic
09:57AM 45.9503 -169.1546 95° East 537 618 36,000  Level FlightAware Transoceanic
09:58AM 45.9369 -168.9435 95° East 537 618 36,000  Level FlightAware Transoceanic
09:59AM 45.9369 -168.9435 95° East 525 604 36,000  Level FlightAware Transoceanic
10:00AM 45.9232 -168.7325 95° East 525 604 36,000  Level FlightAware Transoceanic
10:01AM 45.9090 -168.5216 96° East 525 604 36,000  Level FlightAware Transoceanic
10:02AM 45.8944 -168.3109 96° East 525 604 36,000  Level FlightAware Transoceanic
10:03AM 45.8795 -168.1002 96° East 525 604 36,000  Level FlightAware Transoceanic
10:04AM 45.8642 -167.8896 96° East 525 604 36,000  Level FlightAware Transoceanic
10:05AM 45.8484 -167.6792 96° East 525 604 36,000  Level FlightAware Transoceanic
10:06AM 45.8324 -167.4689 96° East 525 604 36,000  Level FlightAware Transoceanic
10:07AM 45.8159 -167.2587 96° East 525 604 36,000  Level FlightAware Transoceanic
10:07AM 45.8167 -167.2167 97° East 534 615 36,000  Level Oakland Oceanic (ODAPS)
10:08AM 45.7990 -167.0486 97° East 525 604 36,000  Level FlightAware Transoceanic
10:09AM 45.7817 -166.8387 97° East 525 604 36,000  Level FlightAware Transoceanic
10:10AM 45.7641 -166.6289 97° East 525 604 36,000  Level FlightAware Transoceanic
10:11AM 45.7461 -166.4192 97° East 525 604 36,000  Level FlightAware Transoceanic
10:12AM 45.7277 -166.2097 97° East 525 604 36,000  Level FlightAware Transoceanic
10:13AM 45.7092 -165.9655 97° East 534 615 36,000  Level FlightAware Transoceanic
10:14AM 45.6899 -165.7575 98° East 534 615 36,000  Level FlightAware Transoceanic
10:15AM 45.6703 -165.5496 98° East 534 615 36,000  Level FlightAware Transoceanic
10:16AM 45.6503 -165.3418 98° East 534 615 36,000  Level FlightAware Transoceanic
10:17AM 45.6299 -165.1342 98° East 534 615 36,000  Level FlightAware Transoceanic
10:18AM 45.6092 -164.9268 98° East 534 615 36,000  Level FlightAware Transoceanic
10:19AM 45.5880 -164.7195 98° East 534 615 36,000  Level FlightAware Transoceanic
10:20AM 45.5665 -164.5123 99° East 534 615 36,000  Level FlightAware Transoceanic
10:21AM 45.5447 -164.3053 99° East 534 615 36,000  Level FlightAware Transoceanic
10:21AM 45.5500 -164.3500 99° East 538 619 36,000  Level Oakland Oceanic (ODAPS)
10:22AM 45.5224 -164.0985 99° East 534 615 36,000  Level FlightAware Transoceanic
10:23AM 45.4998 -163.8919 99° East 534 615 36,000  Level FlightAware Transoceanic
10:24AM 45.4768 -163.6854 99° East 534 615 36,000  Level FlightAware Transoceanic
10:25AM 45.4534 -163.4791 99° East 534 615 36,000  Level FlightAware Transoceanic
10:26AM 45.4297 -163.2729 99° East 534 615 36,000  Level FlightAware Transoceanic
10:27AM 45.4098 -163.0987 100° East 538 619 36,000  Level FlightAware Transoceanic
10:28AM 45.3851 -162.8908 100° East 538 619 36,000  Level FlightAware Transoceanic
10:29AM 45.3600 -162.6830 100° East 538 619 36,000  Level FlightAware Transoceanic
10:30AM 45.3345 -162.4754 100° East 538 619 36,000  Level FlightAware Transoceanic
10:31AM 45.3087 -162.2681 100° East 538 619 36,000  Level FlightAware Transoceanic
10:32AM 45.2825 -162.0609 100° East 538 619 36,000  Level FlightAware Transoceanic
10:33AM 45.2559 -161.8539 100° East 538 619 36,000  Level FlightAware Transoceanic
10:34AM 45.2290 -161.6471 101° East 538 619 36,000  Level FlightAware Transoceanic
10:35AM 45.2016 -161.4405 101° East 538 619 36,000  Level FlightAware Transoceanic
10:35AM 45.2000 -161.4667 100° East 547 629 36,000  Level Oakland Oceanic (ODAPS)
10:36AM 45.1740 -161.2341 101° East 538 619 36,000  Level FlightAware Transoceanic
10:37AM 45.1459 -161.0279 101° East 538 619 36,000  Level FlightAware Transoceanic
10:38AM 45.1174 -160.8219 101° East 538 619 36,000  Level FlightAware Transoceanic
10:39AM 45.0886 -160.6161 101° East 538 619 36,000  Level FlightAware Transoceanic
10:40AM 45.0595 -160.4105 101° East 538 619 36,000  Level FlightAware Transoceanic
10:41AM 45.0297 -160.2089 101° East 547 629 36,000  Level FlightAware Transoceanic
10:42AM 45.0000 -160.0000 86° East 547 629 36,000 960 Level FlightAware Transoceanic
10:42AM 45.0000 -160.0000 86° East 537 618 37,000  Climbing Oakland Oceanic (ODAPS)
10:43AM 45.0089 -159.7922 87° East 547 629 36,000 -540 Descending FlightAware Transoceanic
10:44AM 45.0174 -159.5843 87° East 547 629 36,000  Level FlightAware Transoceanic
10:45AM 45.0256 -159.3763 87° East 547 629 36,000  Level FlightAware Transoceanic
10:46AM 45.0333 -159.1683 87° East 547 629 36,000  Level FlightAware Transoceanic
10:47AM 45.0407 -158.9602 87° East 547 629 36,000 480 Level FlightAware Transoceanic
10:48AM 45.0486 -158.7255 87° East 537 618 37,000 480 Climbing FlightAware Transoceanic
10:48AM 45.0500 -158.5667 87° East 538 619 37,000  Level Oakland Oceanic (ODAPS)
10:49AM 45.0553 -158.5129 88° East 537 618 37,000  Level FlightAware Transoceanic
10:50AM 45.0617 -158.3002 88° East 537 618 37,000  Level FlightAware Transoceanic
10:51AM 45.0676 -158.0875 88° East 537 618 37,000  Level FlightAware Transoceanic
10:52AM 45.0732 -157.8748 88° East 537 618 37,000  Level FlightAware Transoceanic
10:53AM 45.0783 -157.6620 88° East 537 618 37,000  Level FlightAware Transoceanic
10:54AM 45.0830 -157.4492 88° East 537 618 37,000  Level FlightAware Transoceanic
10:55AM 45.0833 -157.3333 88° East 537 618 37,000  Level Oakland Oceanic (ODAPS)
10:55AM 45.0834 -157.2821 88° East 538 619 37,000  Level FlightAware Transoceanic
10:56AM 45.0875 -157.0679 89° East 538 619 37,000  Level FlightAware Transoceanic
10:57AM 45.0913 -156.8537 89° East 538 619 37,000  Level FlightAware Transoceanic
10:58AM 45.0946 -156.6394 89° East 538 619 37,000  Level FlightAware Transoceanic
10:59AM 45.0976 -156.4251 89° East 538 619 37,000  Level FlightAware Transoceanic
11:00AM 45.1002 -156.2108 89° East 538 619 37,000  Level FlightAware Transoceanic
11:01AM 45.1024 -156.0756 89° East 537 618 37,000  Level FlightAware Transoceanic
11:02AM 45.1043 -155.8659 89° East 537 618 37,000  Level FlightAware Transoceanic
11:02AM 45.1000 -155.6833 89° East 537 618 37,000  Level Oakland Oceanic (ODAPS)
11:03AM 45.1057 -155.6562 90° East 537 618 37,000  Level FlightAware Transoceanic
11:04AM 45.1068 -155.4465 90° East 537 618 37,000  Level FlightAware Transoceanic
11:05AM 45.1075 -155.2368 90° East 537 618 37,000  Level FlightAware Transoceanic
11:06AM 45.1078 -155.0271 90° East 537 618 37,000  Level FlightAware Transoceanic
11:07AM 45.1077 -154.8174 90° East 537 618 37,000  Level FlightAware Transoceanic
11:08AM 45.1072 -154.6076 90° East 537 618 37,000  Level FlightAware Transoceanic
11:09AM 45.1022 -154.4191 90° East 537 618 37,000  Level FlightAware Transoceanic
11:10AM 45.1012 -154.2084 90° East 537 618 37,000  Level FlightAware Transoceanic
11:11AM 45.0998 -153.9977 91° East 537 618 37,000  Level FlightAware Transoceanic
11:12AM 45.0980 -153.7870 91° East 537 618 37,000  Level FlightAware Transoceanic
11:13AM 45.0959 -153.5764 91° East 537 618 37,000  Level FlightAware Transoceanic
11:14AM 45.0933 -153.3657 91° East 537 618 37,000  Level FlightAware Transoceanic
11:15AM 45.0904 -153.1551 91° East 537 618 37,000  Level FlightAware Transoceanic
11:16AM 45.0871 -152.9445 91° East 537 618 37,000  Level FlightAware Transoceanic
11:16AM 45.0833 -152.8167 91° East 525 604 37,000  Level Oakland Oceanic (ODAPS)
11:17AM 45.0834 -152.7339 92° East 537 618 37,000  Level FlightAware Transoceanic
11:18AM 45.0793 -152.5233 92° East 537 618 37,000  Level FlightAware Transoceanic
11:19AM 45.0748 -152.3128 92° East 537 618 37,000  Level FlightAware Transoceanic
11:20AM 45.0699 -152.1023 92° East 537 618 37,000  Level FlightAware Transoceanic
11:21AM 45.0647 -151.8919 92° East 537 618 37,000  Level FlightAware Transoceanic
11:22AM 45.0595 -151.7324 92° East 525 604 37,000  Level FlightAware Transoceanic
11:23AM 45.0535 -151.5157 92° East 525 604 37,000  Level FlightAware Transoceanic
11:24AM 45.0471 -151.2990 92° East 525 604 37,000  Level FlightAware Transoceanic
11:25AM 45.0402 -151.0823 93° East 525 604 37,000  Level FlightAware Transoceanic
11:26AM 45.0330 -150.8658 93° East 525 604 37,000  Level FlightAware Transoceanic
11:27AM 45.0254 -150.6492 93° East 525 604 37,000  Level FlightAware Transoceanic
11:28AM 45.0173 -150.4328 93° East 525 604 37,000  Level FlightAware Transoceanic
11:29AM 45.0089 -150.2163 93° East 525 604 37,000  Level FlightAware Transoceanic
11:30AM 45.0000 -150.0000 94° East 525 604 37,000  Level FlightAware Transoceanic
11:30AM 45.0000 -150.0000 94° East 509 586 37,000  Level Oakland Oceanic (ODAPS)
11:30AM 45.0000 -149.9833 94° East 500 575 37,000  Level Oakland Oceanic (ODAPS)
11:31AM 44.9893 -149.8086 95° East 525 604 37,000  Level FlightAware Transoceanic
11:32AM 44.9783 -149.6172 95° East 525 604 37,000  Level FlightAware Transoceanic
11:33AM 44.9669 -149.4259 95° East 525 604 37,000  Level FlightAware Transoceanic
11:34AM 44.9553 -149.2347 95° East 525 604 37,000  Level FlightAware Transoceanic
11:35AM 44.9433 -149.0436 95° East 525 604 37,000  Level FlightAware Transoceanic
11:36AM 44.9281 -148.8076 95° East 509 586 37,000  Level FlightAware Transoceanic
11:37AM 44.9165 -148.6214 95° East 500 575 37,000  Level FlightAware Transoceanic
11:38AM 44.9033 -148.4272 96° East 500 575 37,000  Level FlightAware Transoceanic
11:39AM 44.8897 -148.2331 96° East 500 575 37,000  Level FlightAware Transoceanic
11:40AM 44.8758 -148.0390 96° East 500 575 37,000  Level FlightAware Transoceanic
11:41AM 44.8615 -147.8451 96° East 500 575 37,000  Level FlightAware Transoceanic
11:42AM 44.8470 -147.6512 96° East 500 575 37,000  Level FlightAware Transoceanic
11:43AM 44.8321 -147.4575 96° East 500 575 37,000  Level FlightAware Transoceanic
11:44AM 44.8169 -147.2639 96° East 500 575 37,000  Level FlightAware Transoceanic
11:44AM 44.8167 -147.2667 96° East 496 571 37,000  Level Oakland Oceanic (ODAPS)
11:45AM 44.8013 -147.0703 97° East 500 575 37,000  Level FlightAware Transoceanic
11:46AM 44.7854 -146.8769 97° East 500 575 37,000  Level FlightAware Transoceanic
11:47AM 44.7692 -146.6835 97° East 500 575 37,000  Level FlightAware Transoceanic
11:48AM 44.7527 -146.4903 97° East 500 575 37,000  Level FlightAware Transoceanic
11:49AM 44.7359 -146.2972 97° East 500 575 37,000  Level FlightAware Transoceanic
11:50AM 44.7186 -146.1066 97° East 496 571 37,000  Level FlightAware Transoceanic
11:51AM 44.7011 -145.9136 97° East 496 571 37,000  Level FlightAware Transoceanic
11:52AM 44.6833 -145.7208 97° East 496 571 37,000  Level FlightAware Transoceanic
11:53AM 44.6651 -145.5281 98° East 496 571 37,000  Level FlightAware Transoceanic
11:54AM 44.6466 -145.3355 98° East 496 571 37,000  Level FlightAware Transoceanic
11:55AM 44.6279 -145.1430 98° East 496 571 37,000  Level FlightAware Transoceanic
11:56AM 44.6087 -144.9507 98° East 496 571 37,000  Level FlightAware Transoceanic
11:57AM 44.5893 -144.7585 98° East 496 571 37,000  Level FlightAware Transoceanic
11:58AM 44.5695 -144.5664 98° East 496 571 37,000  Level FlightAware Transoceanic
11:58AM 44.5833 -144.6167 98° East 490 564 37,000  Level Oakland Oceanic (ODAPS)
11:59AM 44.5495 -144.3744 98° East 496 571 37,000  Level FlightAware Transoceanic
12:00PM 44.5291 -144.1826 99° East 496 571 37,000  Level FlightAware Transoceanic
12:01PM 44.5084 -143.9909 99° East 496 571 37,000  Level FlightAware Transoceanic
12:02PM 44.4873 -143.7993 99° East 496 571 37,000  Level FlightAware Transoceanic
12:03PM 44.4660 -143.6079 99° East 496 571 37,000  Level FlightAware Transoceanic
12:04PM 44.4604 -143.5005 99° East 490 564 37,000  Level FlightAware Transoceanic
12:05PM 44.4388 -143.3149 99° East 490 564 37,000  Level FlightAware Transoceanic
12:06PM 44.4170 -143.1295 99° East 490 564 37,000  Level FlightAware Transoceanic
12:07PM 44.3948 -142.9442 100° East 490 564 37,000  Level FlightAware Transoceanic
12:08PM 44.3723 -142.7591 100° East 490 564 37,000  Level FlightAware Transoceanic
12:09PM 44.3496 -142.5741 100° East 490 564 37,000  Level FlightAware Transoceanic
12:10PM 44.3265 -142.3892 100° East 490 564 37,000  Level FlightAware Transoceanic
12:11PM 44.3032 -142.2045 100° East 490 564 37,000  Level FlightAware Transoceanic
12:12PM 44.2796 -142.0200 100° East 490 564 37,000  Level FlightAware Transoceanic
12:12PM 44.2833 -142.1000 100° East 475 547 37,000  Level Oakland Oceanic (ODAPS)
12:13PM 44.2556 -141.8356 100° East 490 564 37,000  Level FlightAware Transoceanic
12:14PM 44.2314 -141.6513 100° East 490 564 37,000  Level FlightAware Transoceanic
12:15PM 44.2068 -141.4672 101° East 490 564 37,000  Level FlightAware Transoceanic
12:16PM 44.1820 -141.2832 101° East 490 564 37,000  Level FlightAware Transoceanic
12:17PM 44.1569 -141.0994 101° East 490 564 37,000  Level FlightAware Transoceanic
12:18PM 44.1465 -141.0475 101° East 475 547 37,000  Level FlightAware Transoceanic
12:19PM 44.1227 -140.8725 101° East 475 547 37,000  Level FlightAware Transoceanic
12:20PM 44.0987 -140.6978 101° East 475 547 37,000  Level FlightAware Transoceanic
12:21PM 44.0744 -140.5231 101° East 475 547 37,000  Level FlightAware Transoceanic
12:22PM 44.0499 -140.3486 101° East 475 547 37,000  Level FlightAware Transoceanic
12:23PM 44.0251 -140.1742 101° East 475 547 37,000  Level FlightAware Transoceanic
12:23PM 44.0000 -140.0000 109° East 467 537 37,000  Level Oakland Oceanic (ODAPS)
12:24PM 44.0000 -140.0000 109° East 475 547 37,000  Level FlightAware Transoceanic
12:25PM 43.9587 -139.8312 109° East 475 547 37,000  Level FlightAware Transoceanic
12:26PM 43.9172 -139.6627 109° East 475 547 37,000  Level FlightAware Transoceanic
12:26PM 43.9167 -139.6333 109° East 462 532 37,000  Level Oakland Oceanic (ODAPS)
12:27PM 43.8755 -139.4943 109° East 475 547 37,000  Level FlightAware Transoceanic
12:28PM 43.8335 -139.3263 109° East 475 547 37,000  Level FlightAware Transoceanic
12:29PM 43.7912 -139.1584 109° East 475 547 37,000  Level FlightAware Transoceanic
12:30PM 43.7445 -138.9743 109° East 467 537 37,000  Level FlightAware Transoceanic
12:31PM 43.7011 -138.8042 110° East 467 537 37,000  Level FlightAware Transoceanic
12:32PM 43.6623 -138.6300 110° East 462 532 37,000  Level FlightAware Transoceanic
12:33PM 43.6190 -138.4637 110° East 462 532 37,000  Level FlightAware Transoceanic
12:34PM 43.5755 -138.2975 110° East 462 532 37,000  Level FlightAware Transoceanic
12:35PM 43.5318 -138.1316 110° East 462 532 37,000  Level FlightAware Transoceanic
12:36PM 43.4878 -137.9660 110° East 462 532 37,000  Level FlightAware Transoceanic
12:37PM 43.4436 -137.8005 110° East 462 532 37,000  Level FlightAware Transoceanic
12:38PM 43.3992 -137.6354 110° East 462 532 37,000  Level FlightAware Transoceanic
12:39PM 43.3545 -137.4704 110° East 462 532 37,000  Level FlightAware Transoceanic
12:39PM 43.3000 -137.2833 111° Southeast 466 536 37,000  Level Oakland Oceanic (ODAPS)
12:40PM 43.3096 -137.3057 111° Southeast 462 532 37,000  Level FlightAware Transoceanic
12:41PM 43.2644 -137.1413 111° Southeast 462 532 37,000  Level FlightAware Transoceanic
12:42PM 43.2190 -136.9771 111° Southeast 462 532 37,000  Level FlightAware Transoceanic
12:43PM 43.1734 -136.8131 111° Southeast 462 532 37,000  Level FlightAware Transoceanic
12:44PM 43.1275 -136.6494 111° Southeast 462 532 37,000  Level FlightAware Transoceanic
12:45PM 43.0814 -136.4860 111° Southeast 462 532 37,000  Level FlightAware Transoceanic
12:46PM 43.0205 -136.2818 111° Southeast 466 536 37,000  Level FlightAware Transoceanic
12:47PM 42.9730 -136.1158 111° Southeast 466 536 37,000  Level FlightAware Transoceanic
12:48PM 42.9254 -135.9500 112° Southeast 466 536 37,000  Level FlightAware Transoceanic
12:49PM 42.8774 -135.7845 112° Southeast 466 536 37,000  Level FlightAware Transoceanic
12:50PM 42.8293 -135.6192 112° Southeast 466 536 37,000  Level FlightAware Transoceanic
12:51PM 42.7809 -135.4542 112° Southeast 466 536 37,000  Level FlightAware Transoceanic
12:52PM 42.7323 -135.2895 112° Southeast 466 536 37,000  Level FlightAware Transoceanic
12:53PM 42.6834 -135.1250 112° Southeast 466 536 37,000  Level FlightAware Transoceanic
12:53PM 42.6333 -134.9667 112° Southeast 463 533 37,000  Level Oakland Oceanic (ODAPS)
12:54PM 42.6343 -134.9608 112° Southeast 466 536 37,000  Level FlightAware Transoceanic
12:55PM 42.5850 -134.7968 112° Southeast 466 536 37,000  Level FlightAware Transoceanic
12:56PM 42.5354 -134.6331 112° Southeast 466 536 37,000  Level FlightAware Transoceanic
12:57PM 42.4856 -134.4697 113° Southeast 466 536 37,000  Level FlightAware Transoceanic
12:58PM 42.4356 -134.3065 113° Southeast 466 536 37,000  Level FlightAware Transoceanic
12:59PM 42.3853 -134.1436 113° Southeast 466 536 37,000  Level FlightAware Transoceanic
01:00PM 42.3341 -133.9856 113° Southeast 463 533 37,000  Level FlightAware Transoceanic
01:01PM 42.2834 -133.8230 113° Southeast 463 533 37,000  Level FlightAware Transoceanic
01:02PM 42.2325 -133.6607 113° Southeast 463 533 37,000  Level FlightAware Transoceanic
01:03PM 42.1814 -133.4987 113° Southeast 463 533 37,000  Level FlightAware Transoceanic
01:04PM 42.1300 -133.3369 113° Southeast 463 533 37,000  Level FlightAware Transoceanic
01:05PM 42.0784 -133.1753 113° Southeast 463 533 37,000  Level FlightAware Transoceanic
01:06PM 42.0266 -133.0140 113° Southeast 463 533 37,000  Level FlightAware Transoceanic
01:07PM 41.9745 -132.8530 114° Southeast 463 533 37,000  Level FlightAware Transoceanic
01:07PM 41.9333 -132.7500 113° Southeast 455 524 37,000  Level Oakland Oceanic (ODAPS)
01:08PM 41.9222 -132.6923 114° Southeast 463 533 37,000  Level FlightAware Transoceanic
01:09PM 41.8698 -132.5318 114° Southeast 463 533 37,000  Level FlightAware Transoceanic
01:10PM 41.8170 -132.3716 114° Southeast 463 533 37,000  Level FlightAware Transoceanic
01:11PM 41.7641 -132.2116 114° Southeast 463 533 37,000  Level FlightAware Transoceanic
01:12PM 41.7109 -132.0519 114° Southeast 463 533 37,000  Level FlightAware Transoceanic
01:13PM 41.6575 -131.8925 114° Southeast 463 533 37,000  Level FlightAware Transoceanic
01:14PM 41.5782 -131.6711 114° Southeast 455 524 37,000  Level FlightAware Transoceanic
01:15PM 41.5266 -131.5180 114° Southeast 455 524 37,000  Level FlightAware Transoceanic
01:16PM 41.4748 -131.3651 114° Southeast 455 524 37,000  Level FlightAware Transoceanic
01:17PM 41.4229 -131.2124 114° Southeast 455 524 37,000  Level FlightAware Transoceanic
01:18PM 41.3707 -131.0600 115° Southeast 455 524 37,000  Level FlightAware Transoceanic
01:19PM 41.3184 -130.9079 115° Southeast 455 524 37,000  Level FlightAware Transoceanic
01:20PM 41.2658 -130.7559 115° Southeast 455 524 37,000  Level FlightAware Transoceanic
01:21PM 41.2130 -130.6043 115° Southeast 455 524 37,000 660 Level FlightAware Transoceanic
01:21PM 41.2167 -130.6333 114° Southeast 450 518 38,000  Climbing Oakland Oceanic (ODAPS)
01:22PM 41.1601 -130.4528 115° Southeast 455 524 37,000 -660 Descending FlightAware Transoceanic
01:23PM 41.1069 -130.3016 115° Southeast 455 524 37,000  Level FlightAware Transoceanic
01:24PM 41.0536 -130.1507 115° Southeast 455 524 37,000  Level FlightAware Transoceanic
01:25PM 41.0000 -130.0000 106° East 455 524 37,000 600 Level FlightAware Transoceanic
01:25PM 41.0000 -130.0000 106° East 452 520 38,000  Climbing Oakland Oceanic (ODAPS)
01:26PM 40.9669 -129.8485 106° East 455 524 37,000  Descending FlightAware Transoceanic
01:27PM 40.9651 -129.8405 106° East 450 518 38,000 480 Climbing FlightAware Transoceanic
01:28PM 40.9300 -129.6813 106° East 450 518 38,000  Level FlightAware Transoceanic
01:29PM 40.8947 -129.5222 106° East 450 518 38,000  Level FlightAware Transoceanic
01:30PM 40.8591 -129.3632 107° East 450 518 38,000  Level FlightAware Transoceanic
01:31PM 40.8233 -129.2045 107° East 450 518 38,000  Level FlightAware Transoceanic
01:32PM 40.7874 -129.0459 107° East 452 520 38,000  Level FlightAware Transoceanic
01:33PM 40.7512 -128.8874 107° East 452 520 38,000  Level FlightAware Transoceanic
01:34PM 40.7147 -128.7292 107° East 452 520 38,000  Level FlightAware Transoceanic
01:35PM 40.6781 -128.5711 107° East 452 520 38,000  Level FlightAware Transoceanic
01:35PM 40.6500 -128.4500 107° East 460 529 38,000  Level Oakland Oceanic (ODAPS)
01:36PM 40.6413 -128.4132 107° East 452 520 38,000  Level FlightAware Transoceanic
01:37PM 40.6042 -128.2555 107° East 452 520 38,000  Level FlightAware Transoceanic
01:38PM 40.5669 -128.0979 107° East 452 520 38,000  Level FlightAware Transoceanic
01:39PM 40.5294 -127.9405 107° East 452 520 38,000  Level FlightAware Transoceanic
01:40PM 40.4917 -127.7833 108° East 452 520 38,000  Level FlightAware Transoceanic
01:41PM 40.4187 -127.4817 108° East 460 529 38,000  Level FlightAware Transoceanic
01:41PM 40.4214 -127.4994 113° Southeast 460 529 38,000  Level Oakland Center
01:42PM 40.3793 -127.3209 108° East 460 529 38,000  Level FlightAware Transoceanic
01:42PM 40.3833 -127.3403 107° East 460 529 38,000  Level Oakland Center
01:43PM 40.3398 -127.1604 108° East 460 529 38,000  Level FlightAware Transoceanic
01:43PM 40.3447 -127.1831 108° East 458 527 38,000  Level Oakland Center
01:44PM 40.3000 -127.0000 112° Southeast 460 529 38,000  Level FlightAware Transoceanic
01:44PM 40.3056 -127.0247 108° East 458 527 38,000  Level Oakland Center
01:45PM 40.2523 -126.8481 112° Southeast 460 529 38,000  Level FlightAware Transoceanic
01:46PM 40.2044 -126.6964 113° Southeast 460 529 38,000  Level FlightAware Transoceanic
01:50PM 40.0020 -126.0650 108° East 455 524 38,000  Level FlightAware
01:51PM 39.9660 -125.9550 113° Southeast 455 524 38,000  Level FlightAware
01:51PM 39.9490 -125.9010 112° Southeast 455 524 38,000  Level FlightAware
01:52PM 39.9160 -125.7930 112° Southeast 455 524 38,000  Level FlightAware
01:52PM 39.8780 -125.6850 115° Southeast 455 524 38,000  Level FlightAware
01:53PM 39.8450 -125.5850 113° Southeast 454 522 38,000  Level FlightAware
01:54PM 39.8210 -125.5110 113° Southeast 454 522 38,000  Level FlightAware
01:54PM 39.7880 -125.4110 113° Southeast 455 524 38,000  Level FlightAware
01:55PM 39.7550 -125.3110 113° Southeast 455 524 38,000  Level FlightAware
01:56PM 39.7250 -125.2220 114° Southeast 455 524 38,000  Level FlightAware
01:56PM 39.6950 -125.1350 114° Southeast 454 522 38,000  Level FlightAware
01:57PM 39.6540 -125.0560 124° Southeast 447 514 38,000  Level FlightAware
01:57PM 39.6130 -124.9960 132° Southeast 445 512 38,000  Level FlightAware
01:58PM 39.5570 -124.9160 132° Southeast 444 511 38,000  Level FlightAware
01:58PM 39.5080 -124.8460 132° Southeast 444 511 38,000  Level FlightAware
01:59PM 39.4600 -124.7780 132° Southeast 444 511 38,000  Level FlightAware
01:59PM 39.4230 -124.7250 132° Southeast 443 510 38,000  Level FlightAware
02:01PM 39.3020 -124.5450 131° Southeast 443 510 38,000  Level FlightAware
02:02PM 39.2460 -124.4620 131° Southeast 443 510 38,000  Level FlightAware
02:03PM 39.1590 -124.3510 135° Southeast 450 518 38,000  Level FlightAware
02:03PM 39.1080 -124.2790 132° Southeast 450 518 38,000  Level FlightAware
02:04PM 39.0690 -124.2240 132° Southeast 449 517 38,000 -840 Level FlightAware
02:04PM 39.0400 -124.1830 132° Southeast 450 518 37,300 -2,280 Descending FlightAware
02:05PM 38.9640 -124.0770 133° Southeast 439 505 35,200 -2,580 Descending FlightAware
02:06PM 38.9170 -124.0120 133° Southeast 448 516 33,500 -3,060 Descending FlightAware
02:06PM 38.8590 -123.9310 133° Southeast 449 517 31,400 -3,240 Descending FlightAware
02:07PM 38.8000 -123.8490 133° Southeast 449 517 29,200 -2,760 Descending FlightAware
02:08PM 38.7430 -123.7700 133° Southeast 437 503 27,700 -2,340 Descending FlightAware
02:08PM 38.6960 -123.7060 133° Southeast 430 495 26,300 -2,400 Descending FlightAware
02:09PM 38.6420 -123.6310 133° Southeast 421 484 24,800 -2,280 Descending FlightAware
02:09PM 38.5990 -123.5730 133° Southeast 411 473 23,600 -2,220 Descending FlightAware
02:10PM 38.5480 -123.5030 133° Southeast 403 464 22,200 -1,620 Descending FlightAware
02:11PM 38.5060 -123.4440 132° Southeast 384 442 21,600 -1,440 Descending FlightAware
02:11PM 38.4630 -123.3870 134° Southeast 375 432 20,500 -1,740 Descending FlightAware
02:12PM 38.4100 -123.3140 133° Southeast 360 414 19,300 -1,740 Descending FlightAware
02:12PM 38.3710 -123.2610 133° Southeast 352 405 18,300 -1,920 Descending FlightAware
02:13PM 38.3290 -123.2040 133° Southeast 348 400 17,000 -1,500 Descending FlightAware
02:14PM 38.2870 -123.1470 133° Southeast 327 376 16,400 -1,260 Descending FlightAware
02:14PM 38.2530 -123.1010 133° Southeast 321 369 15,500 -1,680 Descending FlightAware
02:15PM 38.2130 -123.0470 133° Southeast 321 369 14,400 -1,680 Descending FlightAware
02:16PM 38.1760 -122.9980 134° Southeast 319 367 13,400 -1,620 Descending FlightAware
02:16PM 38.1460 -122.9560 132° Southeast 319 367 12,600 -1,620 Descending FlightAware
02:17PM 38.1080 -122.9060 134° Southeast 315 362 11,600 -1,440 Descending FlightAware
02:17PM 38.0740 -122.8620 134° Southeast 314 361 10,900 -660 Descending FlightAware
02:18PM 38.0360 -122.8210 140° Southeast 312 359 10,900  Level FlightAware
02:18PM 38.0010 -122.7820 139° Southeast 312 359 10,900  Level FlightAware
02:19PM 37.9610 -122.7400 140° Southeast 312 359 10,900  Level FlightAware
02:19PM 37.9310 -122.7080 140° Southeast 311 358 10,900  Level FlightAware
02:21PM 37.8770 -122.6490 139° Southeast 304 350 10,900  Level FlightAware
02:21PM 37.8270 -122.5950 140° Southeast 288 331 10,900  Level FlightAware
02:21PM 37.8018 -122.5690 141° Southeast 284 327 10,900  Level FlightAware ADS-B
02:22PM 37.7686 -122.5330 139° Southeast 284 327 10,900  Level FlightAware ADS-B
02:23PM 37.7371 -122.4990 140° Southeast 244 281 10,900  Level FlightAware ADS-B
02:23PM 37.7111 -122.4720 141° Southeast 244 281 10,900  Level FlightAware ADS-B
02:24PM 37.6767 -122.4350 140° Southeast 243 280 10,900  Level FlightAware ADS-B
02:24PM 37.6494 -122.4060 140° Southeast 243 280 10,900  Level FlightAware ADS-B
02:25PM 37.6231 -122.3780 140° Southeast 244 281 10,900  Level FlightAware ADS-B
02:25PM 37.6055 -122.3590 139° Southeast 245 282 10,900  Level FlightAware ADS-B
02:25PM 37.5988 -122.3530 145° Southeast 244 281 10,900 -720 Level FlightAware ADS-B
02:26PM 37.5893 -122.3460 150° Southeast 241 277 10,700 -1,200 Descending FlightAware ADS-B
02:26PM 37.5592 -122.3270 153° Southeast 237 273 10,100 -1,320 Descending FlightAware ADS-B
02:26PM 37.5438 -122.3180 155° Southeast 236 272 9,700 -1,800 Descending FlightAware ADS-B
02:27PM 37.5286 -122.3090 155° Southeast 235 270 9,200 -1,860 Descending FlightAware ADS-B
02:27PM 37.5118 -122.2990 155° Southeast 237 273 8,700 -1,500 Descending FlightAware ADS-B
02:27PM 37.4968 -122.2900 155° Southeast 238 274 8,400 -1,200 Descending FlightAware ADS-B
02:27PM 37.4818 -122.2810 155° Southeast 237 273 8,100 -960 Descending FlightAware ADS-B
02:27PM 37.4777 -122.2800 169° South 236 272 8,100 -720 Level FlightAware ADS-B
02:27PM 37.4716 -122.2790 173° South 236 272 8,000 -1,380 Descending FlightAware ADS-B
02:28PM 37.4675 -122.2790 180° South 234 269 7,900 -900 Descending FlightAware ADS-B
02:28PM 37.4643 -122.2790 180° South 234 269 7,900  Level FlightAware ADS-B
02:28PM 37.4601 -122.2800 191° South 235 270 7,900  Level FlightAware ADS-B
02:28PM 37.4564 -122.2820 203° Southwest 236 272 7,900  Level FlightAware ADS-B
02:28PM 37.4520 -122.2850 208° Southwest 235 270 7,900  Level FlightAware ADS-B
02:28PM 37.4375 -122.2940 206° Southwest 234 269 7,900  Level FlightAware ADS-B
02:28PM 37.4228 -122.3030 206° Southwest 236 272 7,900  Level FlightAware ADS-B
02:29PM 37.4082 -122.3130 209° Southwest 236 272 7,900  Level FlightAware ADS-B
02:29PM 37.3932 -122.3220 205° Southwest 235 270 7,900  Level FlightAware ADS-B
02:29PM 37.3776 -122.3320 207° Southwest 236 272 7,900  Level FlightAware ADS-B
02:29PM 37.3628 -122.3410 206° Southwest 236 272 7,900  Level FlightAware ADS-B
02:30PM 37.3455 -122.3520 207° Southwest 236 272 7,900  Level FlightAware ADS-B
02:30PM 37.3302 -122.3620 207° Southwest 233 268 7,900 -360 Level FlightAware ADS-B
02:30PM 37.3128 -122.3730 207° Southwest 231 266 7,700 -780 Descending FlightAware ADS-B
02:30PM 37.2984 -122.3820 206° Southwest 231 266 7,500 -1,020 Descending FlightAware ADS-B
02:31PM 37.2836 -122.3920 208° Southwest 231 266 7,200 -1,200 Descending FlightAware ADS-B
02:31PM 37.2690 -122.4010 206° Southwest 231 266 6,900 -960 Descending FlightAware ADS-B
02:31PM 37.2655 -122.4030 204° Southwest 231 266 6,900 -900 Level FlightAware ADS-B
02:31PM 37.2622 -122.4050 206° Southwest 231 266 6,800 -1,500 Descending FlightAware ADS-B
02:31PM 37.2575 -122.4070 199° South 229 264 6,700 -1,380 Descending FlightAware ADS-B
02:31PM 37.2527 -122.4070 180° South 228 262 6,600 -1,200 Descending FlightAware ADS-B
02:31PM 37.2466 -122.4070 180° South 227 261 6,500 -1,140 Descending FlightAware ADS-B
02:31PM 37.2406 -122.4050 165° South 225 259 6,400 -600 Descending FlightAware ADS-B
02:31PM 37.2375 -122.4030 153° Southeast 225 259 6,400 -900 Level FlightAware ADS-B
02:32PM 37.2347 -122.4000 140° Southeast 225 259 6,300 -1,500 Descending FlightAware ADS-B
02:32PM 37.2309 -122.3960 140° Southeast 226 260 6,200 -1,380 Descending FlightAware ADS-B
02:32PM 37.2283 -122.3920 129° Southeast 226 260 6,100 -900 Descending FlightAware ADS-B
02:32PM 37.2266 -122.3880 118° Southeast 228 262 6,100 -900 Level FlightAware ADS-B
02:32PM 37.2252 -122.3840 114° Southeast 229 264 6,000 -900 Descending FlightAware ADS-B
02:32PM 37.2242 -122.3800 107° East 229 264 6,000 -900 Level FlightAware ADS-B
02:32PM 37.2230 -122.3750 107° East 229 264 5,900 -300 Descending FlightAware ADS-B
02:32PM 37.2192 -122.3540 103° East 231 266 5,900  Level FlightAware ADS-B
02:32PM 37.2155 -122.3330 102° East 233 268 5,900  Level FlightAware ADS-B
02:33PM 37.2144 -122.3130 94° East 233 268 5,900  Level FlightAware ADS-B
02:33PM 37.2152 -122.3090 76° East 237 273 5,900  Level FlightAware ADS-B
02:33PM 37.2177 -122.3010 69° East 241 277 5,900  Level FlightAware ADS-B
02:33PM 37.2231 -122.2910 56° Northeast 241 277 5,900  Level FlightAware ADS-B
02:33PM 37.2278 -122.2830 54° Northeast 241 277 5,900  Level FlightAware ADS-B
02:33PM 37.2381 -122.2660 53° Northeast 241 277 5,900  Level FlightAware ADS-B
02:34PM 37.2491 -122.2470 54° Northeast 240 276 5,900  Level FlightAware ADS-B
02:34PM 37.2594 -122.2300 53° Northeast 239 275 5,900  Level FlightAware ADS-B
02:34PM 37.2693 -122.2130 54° Northeast 239 275 5,900  Level FlightAware ADS-B
02:34PM 37.2796 -122.1960 53° Northeast 239 275 5,900  Level FlightAware ADS-B
02:35PM 37.2899 -122.1790 53° Northeast 240 276 5,900  Level FlightAware ADS-B
02:35PM 37.3003 -122.1620 52° Northeast 241 277 5,900  Level FlightAware ADS-B
02:35PM 37.3103 -122.1450 54° Northeast 242 278 5,900  Level FlightAware ADS-B
02:35PM 37.3192 -122.1300 53° Northeast 242 278 5,900  Level FlightAware ADS-B
02:35PM 37.3218 -122.1260 51° Northeast 242 278 5,900  Level FlightAware ADS-B
02:36PM 37.3247 -122.1220 48° Northeast 243 280 5,900  Level FlightAware ADS-B
02:36PM 37.3283 -122.1190 34° Northeast 244 281 5,900  Level FlightAware ADS-B
02:36PM 37.3329 -122.1150 35° Northeast 245 282 5,900  Level FlightAware ADS-B
02:36PM 37.3384 -122.1120 23° Northeast 247 284 5,900  Level FlightAware ADS-B
02:36PM 37.3430 -122.1100 19° North 248 285 5,900  Level FlightAware ADS-B
02:36PM 37.3600 -122.1050 13° North 248 285 5,900 -240 Level FlightAware ADS-B
02:36PM 37.3768 -122.1000 13° North 246 283 5,800 -1,140 Descending FlightAware ADS-B
02:37PM 37.3963 -122.0930 16° North 244 281 5,300 -1,500 Descending FlightAware ADS-B
02:37PM 37.4159 -122.0870 14° North 244 281 4,900 -1,320 Descending FlightAware ADS-B
02:37PM 37.4317 -122.0820 14° North 232 267 4,600 -1,380 Descending FlightAware ADS-B
02:37PM 37.4352 -122.0810 13° North 224 258 4,500 -1,020 Descending FlightAware ADS-B
02:37PM 37.4382 -122.0810 360° North 222 255 4,500  Level FlightAware ADS-B
02:37PM 37.4440 -122.0800 North 220 253 4,500 -600 Level FlightAware ADS-B
02:37PM 37.4488 -122.0800 360° North 217 250 4,400 -900 Descending FlightAware ADS-B
02:38PM 37.4638 -122.0810 357° North 210 242 4,200 -900 Descending FlightAware ADS-B
02:38PM 37.4688 -122.0810 360° North 208 239 4,100 -600 Descending FlightAware ADS-B
02:38PM 37.4739 -122.0820 351° North 206 237 4,100 -600 Level FlightAware ADS-B
02:38PM 37.4776 -122.0830 348° North 205 236 4,000 -900 Descending FlightAware ADS-B
02:38PM 37.4805 -122.0850 331° Northwest 203 234 4,000 -900 Level FlightAware ADS-B
02:38PM 37.4836 -122.0860 346° North 201 231 3,900 -900 Descending FlightAware ADS-B
02:38PM 37.4862 -122.0880 329° Northwest 199 229 3,900  Level FlightAware ADS-B
02:38PM 37.4891 -122.0910 321° Northwest 203 234 3,900  Level FlightAware ADS-B
02:38PM 37.4963 -122.0990 319° Northwest 201 231 3,900 -420 Level FlightAware ADS-B
02:38PM 37.4996 -122.1050 305° West 197 227 3,800 -1,260 Descending FlightAware ADS-B
02:39PM 37.5086 -122.1210 305° West 193 222 3,400 -1,380 Descending FlightAware ADS-B
02:39PM 37.5168 -122.1370 303° West 192 221 3,000 -1,080 Descending FlightAware ADS-B
02:39PM 37.5222 -122.1470 304° West 190 219 2,900 -240 Descending FlightAware ADS-B
02:39PM 37.5294 -122.1610 303° West 189 217 2,900  Level FlightAware ADS-B
02:40PM 37.5352 -122.1720 304° West 189 217 2,900 -300 Level FlightAware ADS-B
02:40PM 37.5398 -122.1820 300° West 191 220 2,800 -780 Descending FlightAware ADS-B
02:40PM 37.5452 -122.1950 298° West 191 220 2,600 -1,020 Descending FlightAware ADS-B
02:40PM 37.5498 -122.2060 298° West 190 219 2,400 -840 Descending FlightAware ADS-B
02:40PM 37.5542 -122.2160 299° West 189 217 2,300 -720 Descending FlightAware ADS-B
02:41PM 37.5604 -122.2310 298° West 184 212 2,100 -1,020 Descending FlightAware ADS-B
02:41PM 37.5666 -122.2460 298° West 169 194 1,800 -780 Descending FlightAware ADS-B
02:41PM 37.5721 -122.2590 298° West 159 183 1,700 -660 Descending FlightAware ADS-B
02:41PM 37.5768 -122.2700 298° West 153 176 1,500 -960 Descending FlightAware ADS-B
02:42PM 37.5807 -122.2790 299° West 137 158 1,300 -720 Descending FlightAware ADS-B
02:42PM 37.5850 -122.2890 298° West 133 153 1,200 -780 Descending FlightAware ADS-B
02:42PM 37.5897 -122.3000 298° West 132 152 900 -780 Descending FlightAware ADS-B
02:43PM 37.5981 -122.3200 298° West 130 150 600 -660 Descending FlightAware ADS-B
02:43PM 37.6004 -122.3260 296° West 127 146 500 -600 Descending FlightAware ADS-B
02:43PM 37.6036 -122.3340 297° West 129 148 400 -660 Descending FlightAware ADS-B
02:43PM 37.6059 -122.3390 300° West 128 147 300 -840 Descending FlightAware ADS-B
02:43PM 37.6077 -122.3430 300° West 128 147 200 -600 Descending FlightAware ADS-B
02:43PM 37.6116 -122.3530 296° West 127 146 100 -480 Descending FlightAware ADS-B
02:44PM 37.6172 -122.3660 299° West 115 132 -300 Descending FlightAware ADS-B
02:44PM 37.6203 -122.3730 299° West 70 81  Level FlightAware ADS-B